Disclaimer

Please do not use the information listed here in-flight or in-navigation, as they are not provided to us by the airports but are provided by volunteers, so they might be outdated.

Search


Regions


Airport information page

No radio frequency information is available.

Airport informations:
Latitude: 10° 05' 06.43" N
Longitude: 105° 42' 42.92" E
Elevation: 9 feet - 3 meters
Operating hours: UNKNOWN
Operating agency: Civil government, landing fees and diplomatic clearance may be required
Timezone: UTC+7
Fuel: N/A

Runway information:
06/24 - 7886 x 100 feet< - >2404 x 30 meters

Recent METARs:
VVCT 210030Z 10005KT 8000 FEW015 27/25 Q1012 NOSIG
VVCT 210100Z 10006KT 9999 FEW015 28/25 Q1012 NOSIG
VVCT 210100Z 10006KT 9999 FEW015 28/25 Q1012 NOSIG

Airport on the map: